createdAt,value
2017-08-29T00:00:27.691Z,63.12
2017-08-29T00:02:54.090Z,62.82
2017-08-29T00:05:20.461Z,62.66
2017-08-29T00:07:46.826Z,62.00
2017-08-29T00:10:13.199Z,63.04
2017-08-29T00:12:39.569Z,63.71
2017-08-29T00:15:05.976Z,63.80
2017-08-29T00:17:32.329Z,63.42
2017-08-29T00:19:58.682Z,63.40
2017-08-29T00:22:25.027Z,63.43
2017-08-29T00:24:51.408Z,62.91
2017-08-29T00:27:17.824Z,62.65
2017-08-29T00:29:44.210Z,62.61
2017-08-29T00:32:10.615Z,63.11
2017-08-29T00:34:37.039Z,63.00
2017-08-29T00:37:03.423Z,64.40
2017-08-29T00:39:29.819Z,63.28
2017-08-29T00:41:56.201Z,62.64
2017-08-29T00:44:22.660Z,62.96
2017-08-29T00:46:49.082Z,63.17
2017-08-29T00:49:15.539Z,62.45
2017-08-29T00:51:41.945Z,62.19
2017-08-29T00:54:08.351Z,63.72
2017-08-29T00:56:34.723Z,63.52
2017-08-29T00:59:01.122Z,64.33
2017-08-29T01:01:27.519Z,64.49
2017-08-29T01:03:53.926Z,65.01
2017-08-29T01:06:20.329Z,65.06
2017-08-29T01:08:46.683Z,64.77
2017-08-29T01:11:13.194Z,64.42
2017-08-29T01:13:39.591Z,64.20
2017-08-29T01:16:06.062Z,64.71
2017-08-29T01:18:32.484Z,65.58
2017-08-29T01:20:58.907Z,65.16
2017-08-29T01:23:25.321Z,67.40
2017-08-29T01:25:51.773Z,65.97
2017-08-29T01:28:18.209Z,65.83
2017-08-29T01:30:44.655Z,64.95
2017-08-29T01:33:11.068Z,65.67
2017-08-29T01:35:37.486Z,65.16
2017-08-29T01:38:03.921Z,65.20
2017-08-29T01:40:30.367Z,65.31
2017-08-29T01:42:56.807Z,65.94
2017-08-29T01:45:23.294Z,65.87
2017-08-29T01:47:49.729Z,65.99
2017-08-29T01:50:16.146Z,66.51
2017-08-29T01:52:42.551Z,65.76
2017-08-29T01:55:09.004Z,65.94
2017-08-29T01:57:35.418Z,67.37
2017-08-29T02:00:01.833Z,66.96
2017-08-29T02:02:28.317Z,66.67
2017-08-29T02:04:54.744Z,66.74
2017-08-29T02:07:21.180Z,67.19
2017-08-29T02:09:47.640Z,67.80
2017-08-29T02:12:14.066Z,66.89
2017-08-29T02:14:40.457Z,66.61
2017-08-29T02:17:06.814Z,66.69
2017-08-29T02:19:33.195Z,67.35
2017-08-29T02:21:59.575Z,67.92
2017-08-29T02:24:25.957Z,67.41
2017-08-29T02:26:52.544Z,65.82
2017-08-29T02:29:18.911Z,66.41
2017-08-29T02:31:45.308Z,66.56
2017-08-29T02:34:11.692Z,65.93
2017-08-29T02:36:38.048Z,65.58
2017-08-29T02:39:04.449Z,65.14
2017-08-29T02:41:30.820Z,66.43
2017-08-29T02:43:57.179Z,66.38
2017-08-29T02:46:23.553Z,66.46
2017-08-29T02:48:49.947Z,67.82
2017-08-29T02:51:16.278Z,67.19
2017-08-29T02:53:42.637Z,66.64
2017-08-29T02:56:08.980Z,67.39
2017-08-29T02:58:35.338Z,67.42
2017-08-29T03:01:01.724Z,66.54
2017-08-29T03:03:28.101Z,65.86
2017-08-29T03:05:54.469Z,65.45
2017-08-29T03:08:20.847Z,66.30
2017-08-29T03:10:47.212Z,66.26
2017-08-29T03:13:13.636Z,65.77
2017-08-29T03:15:40.025Z,66.59
2017-08-29T03:18:06.368Z,66.22
2017-08-29T03:20:32.757Z,67.18
2017-08-29T03:22:59.139Z,66.29
2017-08-29T03:25:25.536Z,66.50
2017-08-29T03:27:51.896Z,66.46
2017-08-29T03:30:18.339Z,66.30
2017-08-29T03:32:44.737Z,66.32
2017-08-29T03:35:11.112Z,65.87
2017-08-29T03:37:38.441Z,65.81
2017-08-29T03:40:04.854Z,66.32
2017-08-29T03:42:31.238Z,65.65
2017-08-29T03:44:57.582Z,65.87
2017-08-29T03:47:23.948Z,66.26
2017-08-29T03:49:50.293Z,67.25
2017-08-29T03:52:16.679Z,66.88
2017-08-29T03:54:43.110Z,66.18
2017-08-29T03:57:09.455Z,66.90
2017-08-29T03:59:35.823Z,67.30
2017-08-29T04:02:02.187Z,66.54
2017-08-29T04:04:28.560Z,66.63
2017-08-29T04:06:54.969Z,67.09
2017-08-29T04:09:21.336Z,68.01
2017-08-29T04:11:47.694Z,67.59
2017-08-29T04:14:14.097Z,67.62
2017-08-29T04:16:40.486Z,68.44
2017-08-29T04:19:06.846Z,68.18
2017-08-29T04:21:33.190Z,67.97
2017-08-29T04:23:59.543Z,67.00
2017-08-29T04:26:25.923Z,67.74
2017-08-29T04:28:52.307Z,68.12
2017-08-29T04:31:18.689Z,68.43
2017-08-29T04:33:45.077Z,68.11
2017-08-29T04:36:11.477Z,67.83
2017-08-29T04:38:37.822Z,67.74
2017-08-29T04:41:04.304Z,67.27
2017-08-29T04:43:30.689Z,67.71
2017-08-29T04:45:57.065Z,68.03
2017-08-29T04:48:23.456Z,68.11
2017-08-29T04:50:49.836Z,68.28
2017-08-29T04:53:16.184Z,68.19
2017-08-29T04:55:42.579Z,68.18
2017-08-29T04:58:08.938Z,67.86
2017-08-29T05:00:35.408Z,68.02
2017-08-29T05:03:01.842Z,68.78
2017-08-29T05:05:28.220Z,67.85
2017-08-29T05:07:54.745Z,67.54
2017-08-29T05:10:21.161Z,67.82
2017-08-29T05:12:47.553Z,68.48
2017-08-29T05:15:13.947Z,68.36
2017-08-29T05:17:40.312Z,68.48
2017-08-29T05:20:06.678Z,68.46
2017-08-29T05:22:33.038Z,69.38
2017-08-29T05:24:59.393Z,68.21
2017-08-29T05:27:25.751Z,68.16
2017-08-29T05:29:52.118Z,67.80
2017-08-29T05:32:18.536Z,68.65
2017-08-29T05:34:44.894Z,69.10
2017-08-29T05:37:11.269Z,69.22
2017-08-29T05:39:37.657Z,69.24
2017-08-29T05:42:04.042Z,69.11
2017-08-29T05:44:30.396Z,68.87
2017-08-29T05:46:56.744Z,68.77
2017-08-29T05:49:23.108Z,68.96
2017-08-29T05:51:49.472Z,68.62
2017-08-29T05:54:15.857Z,68.42
2017-08-29T05:56:42.237Z,69.16
2017-08-29T05:59:08.638Z,69.26
2017-08-29T06:01:35.068Z,69.34
2017-08-29T06:04:01.474Z,69.46
2017-08-29T06:06:27.862Z,69.37
2017-08-29T06:08:54.296Z,70.28
2017-08-29T06:11:20.743Z,69.29
2017-08-29T06:13:47.163Z,69.83
2017-08-29T06:16:13.589Z,70.27
2017-08-29T06:18:40.037Z,70.16
2017-08-29T06:21:06.391Z,70.63
2017-08-29T06:23:32.781Z,71.05
2017-08-29T06:25:59.154Z,71.26
2017-08-29T06:28:25.551Z,71.90
2017-08-29T06:30:52.044Z,72.14
2017-08-29T06:33:18.412Z,71.54
2017-08-29T06:35:44.833Z,72.30
2017-08-29T06:38:11.186Z,71.84
2017-08-29T06:40:37.552Z,72.27
2017-08-29T06:43:03.957Z,72.44
2017-08-29T06:45:30.302Z,72.09
2017-08-29T06:47:56.664Z,72.50
2017-08-29T06:50:23.001Z,72.69
2017-08-29T06:52:49.357Z,72.40
2017-08-29T06:55:15.726Z,72.20
2017-08-29T06:57:42.097Z,71.91
2017-08-29T07:00:08.495Z,72.06
2017-08-29T07:02:34.902Z,72.04
2017-08-29T07:05:01.313Z,71.57
2017-08-29T07:07:27.725Z,70.45
2017-08-29T07:09:54.130Z,71.27
2017-08-29T07:12:20.558Z,71.27
2017-08-29T07:17:13.130Z,70.21
2017-08-29T07:19:39.512Z,71.08
2017-08-29T07:22:05.893Z,69.71
2017-08-29T07:24:32.307Z,69.92
2017-08-29T07:26:58.714Z,69.91
2017-08-29T07:29:25.096Z,69.66
2017-08-29T07:31:51.491Z,69.48
2017-08-29T07:34:17.893Z,69.32
2017-08-29T07:36:44.253Z,68.71
2017-08-29T07:39:10.628Z,68.24
2017-08-29T07:41:37.052Z,68.50
2017-08-29T07:44:03.439Z,68.16
2017-08-29T07:46:29.817Z,67.05
2017-08-29T07:48:56.275Z,66.83
2017-08-29T07:51:22.692Z,68.00
2017-08-29T07:53:49.052Z,68.34
2017-08-29T07:56:15.423Z,67.82
2017-08-29T07:58:41.885Z,67.12
2017-08-29T08:01:08.262Z,66.02
2017-08-29T08:03:34.654Z,65.41
2017-08-29T08:06:01.025Z,66.12
2017-08-29T08:08:27.399Z,66.25
2017-08-29T08:10:53.801Z,66.62
2017-08-29T08:13:20.229Z,64.99
2017-08-29T08:15:46.627Z,64.06
2017-08-29T08:18:13.012Z,63.87
2017-08-29T08:20:39.401Z,64.15
2017-08-29T08:23:05.775Z,63.82
2017-08-29T08:25:32.156Z,63.40
2017-08-29T08:27:58.644Z,64.31
2017-08-29T08:30:25.058Z,61.93
2017-08-29T08:32:51.469Z,62.27
2017-08-29T08:35:17.907Z,62.93
2017-08-29T08:37:44.306Z,62.88
2017-08-29T08:40:10.685Z,64.27
2017-08-29T08:42:37.107Z,63.33
2017-08-29T08:45:03.499Z,63.84
2017-08-29T08:47:29.893Z,63.12
2017-08-29T08:49:56.247Z,60.36
2017-08-29T08:52:22.625Z,60.32
2017-08-29T08:54:48.997Z,61.57
2017-08-29T08:57:15.421Z,60.43
2017-08-29T08:59:41.829Z,58.18
2017-08-29T09:02:08.580Z,58.04
2017-08-29T09:04:35.481Z,59.56
2017-08-29T09:07:01.900Z,60.57
2017-08-29T09:09:28.564Z,58.11
2017-08-29T09:11:55.266Z,58.35
2017-08-29T09:14:21.703Z,57.49
2017-08-29T09:16:48.202Z,57.65
2017-08-29T09:19:14.641Z,57.42
2017-08-29T09:21:41.071Z,58.36
2017-08-29T09:24:07.486Z,58.50
2017-08-29T09:26:33.904Z,55.52
2017-08-29T09:29:00.328Z,54.97
2017-08-29T09:31:26.909Z,54.32
2017-08-29T09:33:53.469Z,55.84
2017-08-29T09:36:19.876Z,55.63
2017-08-29T09:38:46.296Z,55.29
2017-08-29T09:41:12.730Z,55.11
2017-08-29T09:43:39.177Z,54.98
2017-08-29T09:46:05.651Z,55.24
2017-08-29T09:48:32.107Z,55.54
2017-08-29T09:50:58.619Z,54.81
2017-08-29T09:53:25.024Z,52.37
2017-08-29T09:55:51.521Z,51.70
2017-08-29T09:58:17.970Z,51.82
2017-08-29T10:00:44.380Z,53.19
2017-08-29T10:03:10.774Z,52.79
2017-08-29T10:05:37.118Z,52.29
2017-08-29T10:08:03.489Z,51.69
2017-08-29T10:10:29.854Z,51.45
2017-08-29T10:12:56.362Z,50.91
2017-08-29T10:15:22.811Z,49.89
2017-08-29T10:17:49.331Z,51.19
2017-08-29T10:20:15.861Z,49.44
2017-08-29T10:22:42.260Z,50.14
2017-08-29T10:25:08.666Z,49.82
2017-08-29T10:27:35.173Z,50.97
2017-08-29T10:30:01.600Z,51.50
2017-08-29T10:32:28.022Z,50.59
2017-08-29T10:34:54.397Z,49.35
2017-08-29T10:37:20.820Z,48.67
2017-08-29T10:39:47.200Z,46.98
2017-08-29T10:42:13.600Z,47.73
2017-08-29T10:44:39.989Z,48.23
2017-08-29T10:47:06.346Z,46.30
2017-08-29T10:49:32.733Z,47.47
2017-08-29T10:51:59.459Z,47.28
2017-08-29T10:54:25.891Z,45.62
2017-08-29T10:56:52.293Z,45.32
2017-08-29T10:59:18.701Z,45.13
2017-08-29T11:01:45.069Z,44.72
2017-08-29T11:04:11.450Z,43.51
2017-08-29T11:06:37.841Z,44.70
2017-08-29T11:09:04.249Z,45.01
2017-08-29T11:11:30.645Z,44.21
2017-08-29T11:13:57.002Z,44.26
2017-08-29T11:16:23.406Z,45.07
2017-08-29T11:18:49.795Z,43.45
2017-08-29T11:21:16.210Z,44.57
2017-08-29T11:23:42.642Z,44.39
2017-08-29T11:26:09.038Z,43.79
2017-08-29T11:28:35.520Z,41.89
2017-08-29T11:31:02.214Z,41.66
2017-08-29T11:33:28.637Z,43.24
2017-08-29T11:35:55.049Z,42.69
2017-08-29T11:38:21.490Z,43.49
2017-08-29T11:40:47.919Z,43.23
2017-08-29T11:43:14.358Z,41.46
2017-08-29T11:45:40.768Z,42.24
2017-08-29T11:48:07.166Z,42.56
2017-08-29T11:50:33.670Z,41.77
2017-08-29T11:53:00.143Z,41.59
2017-08-29T11:55:26.587Z,42.47
2017-08-29T11:57:53.011Z,41.60
2017-08-29T12:00:19.438Z,41.44
2017-08-29T12:02:45.875Z,41.02
2017-08-29T12:05:12.280Z,42.09
2017-08-29T12:07:38.714Z,40.66
2017-08-29T12:10:05.168Z,40.57
2017-08-29T12:12:31.620Z,40.01
2017-08-29T12:14:58.031Z,40.32
2017-08-29T12:17:24.380Z,40.59
2017-08-29T12:19:50.795Z,41.45
2017-08-29T12:22:17.150Z,37.51
2017-08-29T12:24:43.494Z,37.53
2017-08-29T12:27:09.893Z,36.75
2017-08-29T12:29:36.239Z,38.42
2017-08-29T12:32:02.613Z,37.97
2017-08-29T12:34:29.004Z,37.67
2017-08-29T12:36:55.346Z,39.03
2017-08-29T12:39:21.688Z,38.02
2017-08-29T12:41:48.046Z,36.58
2017-08-29T12:44:14.494Z,37.19
2017-08-29T12:46:40.930Z,36.87
2017-08-29T12:49:07.308Z,36.26
2017-08-29T12:51:33.733Z,34.76
2017-08-29T12:54:00.078Z,35.39
2017-08-29T12:56:26.459Z,36.78
2017-08-29T12:58:52.847Z,34.79
2017-08-29T13:01:19.268Z,35.16
2017-08-29T13:03:45.660Z,35.21
2017-08-29T13:06:12.094Z,34.93
2017-08-29T13:08:38.477Z,34.53
2017-08-29T13:11:04.828Z,34.77
2017-08-29T13:13:31.222Z,34.82
2017-08-29T13:15:57.589Z,35.77
2017-08-29T13:18:23.974Z,34.31
2017-08-29T13:20:50.408Z,34.19
2017-08-29T13:23:16.818Z,34.38
2017-08-29T13:25:43.199Z,35.00
2017-08-29T13:28:09.628Z,32.42
2017-08-29T13:30:35.980Z,32.89
2017-08-29T13:33:02.380Z,32.11
2017-08-29T13:35:28.766Z,32.24
2017-08-29T13:37:55.153Z,33.39
2017-08-29T13:40:21.520Z,33.78
2017-08-29T13:42:47.878Z,34.22
2017-08-29T13:45:14.263Z,34.49
2017-08-29T13:47:40.637Z,33.22
2017-08-29T13:50:07.030Z,33.00
2017-08-29T13:52:33.398Z,33.99
2017-08-29T13:54:59.802Z,33.80
2017-08-29T13:57:26.176Z,33.57
2017-08-29T13:59:52.554Z,33.54
2017-08-29T14:02:18.966Z,33.57
2017-08-29T14:04:45.327Z,34.01
2017-08-29T14:07:11.727Z,34.00
2017-08-29T14:09:38.133Z,33.25
2017-08-29T14:12:04.516Z,33.49
2017-08-29T14:14:30.942Z,33.19
2017-08-29T14:16:57.290Z,33.38
2017-08-29T14:19:23.657Z,32.94
2017-08-29T14:21:50.031Z,34.02
2017-08-29T14:24:16.430Z,32.49
2017-08-29T14:26:42.803Z,32.34
2017-08-29T14:29:09.173Z,32.44
2017-08-29T14:31:35.575Z,33.00
2017-08-29T14:34:01.935Z,34.41
2017-08-29T14:36:28.336Z,33.86
2017-08-29T14:38:56.947Z,34.81
2017-08-29T14:41:23.331Z,35.16
2017-08-29T14:43:49.723Z,34.74
2017-08-29T14:46:16.191Z,34.09
2017-08-29T14:48:54.817Z,35.20
2017-08-29T14:51:21.212Z,35.37
2017-08-29T14:53:47.652Z,34.25
2017-08-29T14:56:14.068Z,34.18
2017-08-29T14:58:40.480Z,34.43
2017-08-29T15:01:06.892Z,34.46
2017-08-29T15:03:33.294Z,34.25
2017-08-29T15:05:59.709Z,34.88
2017-08-29T15:08:26.104Z,35.18
2017-08-29T15:10:52.563Z,34.93
2017-08-29T15:13:18.942Z,35.57
2017-08-29T15:15:45.296Z,34.28
2017-08-29T15:18:11.731Z,34.49
2017-08-29T15:20:38.105Z,35.25
2017-08-29T15:23:04.536Z,35.86
2017-08-29T15:25:30.987Z,36.50
2017-08-29T15:27:57.360Z,36.37
2017-08-29T15:30:23.762Z,34.84
2017-08-29T15:32:50.142Z,35.29
2017-08-29T15:35:16.524Z,35.99
2017-08-29T15:37:42.947Z,34.48
2017-08-29T15:40:09.369Z,35.41
2017-08-29T15:42:35.756Z,35.68
2017-08-29T15:45:02.167Z,36.00
2017-08-29T15:47:28.571Z,36.81
2017-08-29T15:49:54.961Z,37.64
2017-08-29T15:52:21.627Z,36.24
2017-08-29T15:54:48.014Z,36.90
2017-08-29T15:57:14.442Z,37.05
2017-08-29T15:59:40.829Z,35.25
2017-08-29T16:02:07.226Z,36.41
2017-08-29T16:04:33.624Z,36.77
2017-08-29T16:07:00.049Z,37.29
2017-08-29T16:09:26.441Z,38.12
2017-08-29T16:11:52.843Z,38.68
2017-08-29T16:14:19.252Z,38.32
2017-08-29T16:16:45.656Z,38.60
2017-08-29T16:19:12.049Z,39.01
2017-08-29T16:21:38.470Z,39.37
2017-08-29T16:24:04.869Z,39.13
2017-08-29T16:26:31.268Z,38.53
2017-08-29T16:28:57.669Z,38.56
2017-08-29T16:31:24.105Z,39.28
2017-08-29T16:33:50.686Z,39.75
2017-08-29T16:36:17.088Z,39.89
2017-08-29T16:38:43.465Z,40.48
2017-08-29T16:41:09.857Z,40.54
2017-08-29T16:43:36.295Z,40.98
2017-08-29T16:46:02.681Z,41.54
2017-08-29T16:48:29.074Z,41.52
2017-08-29T16:50:55.529Z,41.89
2017-08-29T16:53:21.947Z,42.29
2017-08-29T16:55:48.337Z,42.24
2017-08-29T16:58:14.867Z,42.47
2017-08-29T17:00:41.259Z,43.01
2017-08-29T17:03:07.667Z,43.66
2017-08-29T17:05:34.115Z,44.29
2017-08-29T17:08:04.043Z,43.56
2017-08-29T17:10:30.507Z,43.32
2017-08-29T17:12:56.862Z,43.90
2017-08-29T17:15:23.619Z,43.93
2017-08-29T17:17:50.087Z,46.21
2017-08-29T17:20:16.795Z,45.17
2017-08-29T17:22:43.758Z,44.77
2017-08-29T17:25:10.202Z,44.23
2017-08-29T17:27:36.577Z,44.92
2017-08-29T17:30:02.981Z,45.54
2017-08-29T17:32:29.439Z,46.05
2017-08-29T17:34:55.816Z,45.80
2017-08-29T17:37:22.269Z,45.84
2017-08-29T17:39:48.636Z,46.45
2017-08-29T17:42:15.034Z,46.96
2017-08-29T17:44:41.492Z,47.52
2017-08-29T17:47:08.083Z,48.90
2017-08-29T17:49:34.480Z,49.41
2017-08-29T17:52:00.932Z,50.79
2017-08-29T17:54:27.416Z,51.17
2017-08-29T17:56:53.779Z,51.76
2017-08-29T17:59:20.185Z,50.28
2017-08-29T18:01:46.765Z,53.31
2017-08-29T18:05:36.977Z,52.53
2017-08-29T18:08:03.393Z,54.11
2017-08-29T18:10:29.778Z,54.96
2017-08-29T18:14:15.067Z,55.30
2017-08-29T18:16:46.272Z,55.50
2017-08-29T18:19:55.425Z,60.58
2017-08-29T18:22:22.338Z,52.41
2017-08-29T18:24:49.230Z,54.37
2017-08-29T18:27:16.259Z,56.29
2017-08-29T18:29:43.204Z,56.04
2017-08-29T18:32:10.091Z,54.28
2017-08-29T18:34:37.020Z,55.78
2017-08-29T18:37:03.937Z,55.56
2017-08-29T18:39:30.854Z,57.94
2017-08-29T18:41:57.744Z,58.14
2017-08-29T18:44:24.625Z,56.95
2017-08-29T18:46:51.503Z,59.68
2017-08-29T18:49:18.392Z,58.95
2017-08-29T18:51:45.270Z,59.89
2017-08-29T18:54:12.129Z,59.72
2017-08-29T18:56:39.195Z,61.05
2017-08-29T18:59:06.171Z,61.60
2017-08-29T19:01:33.023Z,61.15
2017-08-29T19:03:59.890Z,62.63
2017-08-29T19:06:26.802Z,62.82
2017-08-29T19:08:53.653Z,62.85
2017-08-29T19:11:20.842Z,62.69
2017-08-29T19:13:47.748Z,63.72
2017-08-29T19:16:14.807Z,63.92
2017-08-29T19:18:41.811Z,64.79
2017-08-29T19:21:08.765Z,64.27
2017-08-29T19:23:35.669Z,64.24
2017-08-29T19:26:02.596Z,61.19
2017-08-29T19:28:29.543Z,64.70
2017-08-29T19:30:56.458Z,64.42
2017-08-29T19:33:23.535Z,64.17
2017-08-29T19:35:50.488Z,65.57
2017-08-29T19:38:17.391Z,65.77
2017-08-29T19:40:44.294Z,62.15
2017-08-29T19:43:11.474Z,64.44
2017-08-29T19:45:38.417Z,66.39
2017-08-29T19:48:05.340Z,65.72
2017-08-29T19:50:32.264Z,67.66
2017-08-29T19:52:59.193Z,67.85
2017-08-29T19:55:26.111Z,68.23
2017-08-29T19:57:53.040Z,64.85
2017-08-29T20:00:19.967Z,66.87
2017-08-29T20:02:47.627Z,67.33
2017-08-29T20:05:14.535Z,67.12
2017-08-29T20:07:41.570Z,67.67
2017-08-29T20:10:08.455Z,69.12
2017-08-29T20:12:35.391Z,69.77
2017-08-29T20:15:02.629Z,69.43
2017-08-29T20:17:29.522Z,68.56
2017-08-29T20:19:56.406Z,67.92
2017-08-29T20:22:23.376Z,68.72
2017-08-29T20:24:50.710Z,69.56
2017-08-29T20:27:17.908Z,70.14
2017-08-29T20:29:44.881Z,67.65
2017-08-29T20:32:11.963Z,70.09
2017-08-29T20:34:38.827Z,67.25
2017-08-29T20:37:06.215Z,69.80
2017-08-29T20:39:34.460Z,70.03
2017-08-29T20:42:01.482Z,70.07
2017-08-29T20:44:28.374Z,68.47
2017-08-29T20:46:55.322Z,68.62
2017-08-29T20:49:22.274Z,71.54
2017-08-29T20:51:49.207Z,71.43
2017-08-29T20:54:16.132Z,68.83
2017-08-29T20:56:43.047Z,71.16
2017-08-29T20:59:09.951Z,68.64
2017-08-29T21:01:36.840Z,70.97
2017-08-29T21:04:03.764Z,71.95
2017-08-29T21:06:30.693Z,72.19
2017-08-29T21:09:01.318Z,71.23
2017-08-29T21:11:28.478Z,71.86
2017-08-29T21:13:55.374Z,72.50
2017-08-29T21:16:22.354Z,71.46
2017-08-29T21:18:49.307Z,72.40
2017-08-29T21:21:16.257Z,72.52
2017-08-29T21:23:43.183Z,73.00
2017-08-29T21:26:10.117Z,73.08
2017-08-29T21:28:36.998Z,71.87
2017-08-29T21:31:03.898Z,73.58
2017-08-29T21:33:30.804Z,71.80
2017-08-29T21:35:57.749Z,72.03
2017-08-29T21:38:24.636Z,72.72
2017-08-29T21:40:51.519Z,72.73
2017-08-29T21:43:18.425Z,73.37
2017-08-29T21:45:45.344Z,73.76
2017-08-29T21:48:12.226Z,71.99
2017-08-29T21:50:40.594Z,71.78
2017-08-29T21:53:08.199Z,72.59
2017-08-29T21:55:35.435Z,71.92
2017-08-29T21:58:02.716Z,72.02
2017-08-29T22:00:29.701Z,73.71
2017-08-29T22:02:56.584Z,74.69
2017-08-29T22:05:23.519Z,73.73
2017-08-29T22:07:50.434Z,72.63
2017-08-29T22:10:17.327Z,69.80
2017-08-29T22:12:44.247Z,70.08
2017-08-29T22:15:11.169Z,70.81
2017-08-29T22:17:38.192Z,67.55
2017-08-29T22:20:05.063Z,65.76
2017-08-29T22:22:31.959Z,65.31
2017-08-29T22:24:58.886Z,64.76
2017-08-29T22:27:25.775Z,63.99
2017-08-29T22:29:52.683Z,63.83
2017-08-29T22:32:25.374Z,64.39
2017-08-29T22:34:52.277Z,66.35
2017-08-29T22:37:19.196Z,65.92
2017-08-29T22:39:46.247Z,66.00
2017-08-29T22:42:13.152Z,67.12
2017-08-29T22:44:40.015Z,64.69
2017-08-29T22:47:06.891Z,66.78
2017-08-29T22:49:35.805Z,66.47
2017-08-29T22:52:02.682Z,68.68
2017-08-29T22:54:29.948Z,67.73
2017-08-29T22:56:56.814Z,68.37
2017-08-29T22:59:27.044Z,68.39
2017-08-29T23:01:54.055Z,69.72
2017-08-29T23:04:20.955Z,68.11
2017-08-29T23:06:47.837Z,67.54
2017-08-29T23:09:14.735Z,68.04
2017-08-29T23:11:41.762Z,66.70
2017-08-29T23:14:08.708Z,64.88
2017-08-29T23:16:35.948Z,66.92
2017-08-29T23:19:02.867Z,68.90
2017-08-29T23:21:29.769Z,68.42
2017-08-29T23:23:56.656Z,69.05
2017-08-29T23:26:23.518Z,68.42
2017-08-29T23:28:50.453Z,67.34
2017-08-29T23:31:17.332Z,67.09
2017-08-29T23:33:44.216Z,66.53
2017-08-29T23:36:11.121Z,66.63
2017-08-29T23:38:37.975Z,64.39
2017-08-29T23:41:04.902Z,65.98
2017-08-29T23:43:31.775Z,65.82
2017-08-29T23:45:58.658Z,64.58
2017-08-29T23:48:25.594Z,65.06
2017-08-29T23:50:52.484Z,65.68
2017-08-29T23:53:19.362Z,67.60
2017-08-29T23:55:46.241Z,65.45
2017-08-29T23:58:13.113Z,65.46
